Time;durP1;ratioP1;P1;durP2;ratioP2;P2;SDS_P1;SDS_P2;PMS_P1;PMS_P2;Temp;Humidity;BMP_temperature;BMP_pressure;BME280_temperature;BME280_humidity;BME280_pressure;Samples;Min_cycle;Max_cycle;Signal;HPM_P1;HPM_P2
2022/11/23 00:01:38;;;;;;;;;;;10.40;99.90;;;;;;5095962;28;19908;-24
2022/11/23 00:04:07;;;;;;;;;;;10.40;99.90;;;;;;5095843;28;20042;-24
2022/11/23 00:06:33;;;;;;;;;;;10.40;99.90;;;;;;5096143;28;20365;-24
2022/11/23 00:08:59;;;;;;;;;;;10.40;99.90;;;;;;5096371;28;19938;-24
2022/11/23 00:11:25;;;;;;;;;;;10.40;99.90;;;;;;5096982;28;19976;-24
2022/11/23 00:13:51;;;;;;;;;;;10.40;99.90;;;;;;5095114;28;19912;-24
2022/11/23 00:16:18;;;;;;;;;;;10.40;99.90;;;;;;5096320;28;20289;-24
2022/11/23 00:18:44;;;;;;;;;;;10.40;99.90;;;;;;5096335;28;19908;-24
2022/11/23 00:21:11;;;;;;;;;;;10.40;99.90;;;;;;5097108;28;19908;-24
2022/11/23 00:23:38;;;;;;;;;;;10.40;99.90;;;;;;5097207;28;19916;-24
2022/11/23 00:26:04;;;;;;;;;;;10.40;99.90;;;;;;5095991;28;20029;-24
2022/11/23 00:28:30;;;;;;;;;;;10.40;99.90;;;;;;5094890;28;19912;-24
2022/11/23 00:30:55;;;;;;;;;;;10.40;99.90;;;;;;5098815;28;19908;-24
2022/11/23 00:33:21;;;;;;;;;;;10.40;99.90;;;;;;5094300;28;20459;-24
2022/11/23 00:35:46;;;;;;;;;;;10.40;99.90;;;;;;5095194;28;19892;-24
2022/11/23 00:38:12;;;;;;;;;;;10.40;99.90;;;;;;5095894;28;19923;-24
2022/11/23 00:40:37;;;;;;;;;;;10.40;99.90;;;;;;5096845;28;20013;-24
2022/11/23 00:43:03;;;;;;;;;;;10.40;99.90;;;;;;5096092;28;19912;-25
2022/11/23 00:45:28;;;;;;;;;;;10.40;99.90;;;;;;5094640;28;19912;-24
2022/11/23 00:47:54;;;;;;;;;;;10.30;99.90;;;;;;5094422;28;19909;-24
2022/11/23 00:50:19;;;;;;;;;;;10.30;99.90;;;;;;5095484;28;19908;-24
2022/11/23 00:52:45;;;;;;;;;;;10.30;99.90;;;;;;5096227;28;19908;-24
2022/11/23 00:55:10;;;;;;;;;;;10.30;99.90;;;;;;5094540;28;19962;-24
2022/11/23 00:57:36;;;;;;;;;;;10.40;99.90;;;;;;5093651;28;19915;-24
2022/11/23 01:00:02;;;;;;;;;;;10.30;99.90;;;;;;5093957;28;20018;-24
2022/11/23 01:02:28;;;;;;;;;;;10.30;99.90;;;;;;5094912;28;19980;-24
2022/11/23 01:04:53;;;;;;;;;;;10.30;99.90;;;;;;5094653;28;19967;-25
2022/11/23 01:07:19;;;;;;;;;;;10.40;99.90;;;;;;5094999;28;19912;-25
2022/11/23 01:09:44;;;;;;;;;;;10.30;99.90;;;;;;5093648;28;19960;-24
2022/11/23 01:12:10;;;;;;;;;;;10.40;99.90;;;;;;5095992;28;19912;-24
2022/11/23 01:14:35;;;;;;;;;;;10.40;99.90;;;;;;5094791;28;19908;-25
2022/11/23 01:17:00;;;;;;;;;;;10.30;99.90;;;;;;5094859;28;19908;-24
2022/11/23 01:19:26;;;;;;;;;;;10.30;99.90;;;;;;5094981;28;19912;-24
2022/11/23 01:21:51;;;;;;;;;;;10.30;99.90;;;;;;5093974;28;19943;-24
2022/11/23 01:24:18;;;;;;;;;;;10.30;99.90;;;;;;5095975;28;19919;-24
2022/11/23 01:26:44;;;;;;;;;;;10.30;99.90;;;;;;5094553;28;19914;-24
2022/11/23 01:29:10;;;;;;;;;;;10.30;99.90;;;;;;5094401;28;19908;-24
2022/11/23 01:31:36;;;;;;;;;;;10.30;99.90;;;;;;5096013;28;19912;-24
2022/11/23 01:34:02;;;;;;;;;;;10.30;99.90;;;;;;5095035;28;20430;-24
2022/11/23 01:36:31;;;;;;;;;;;10.30;99.90;;;;;;5095941;28;19999;-24
2022/11/23 01:38:57;;;;;;;;;;;10.30;99.90;;;;;;5095023;28;20321;-24
2022/11/23 01:41:27;;;;;;;;;;;10.30;99.90;;;;;;5094210;28;19908;-24
2022/11/23 01:43:53;;;;;;;;;;;10.30;99.90;;;;;;5093955;28;19909;-24
2022/11/23 01:46:19;;;;;;;;;;;10.30;99.90;;;;;;5094013;28;19916;-24
2022/11/23 01:48:44;;;;;;;;;;;10.30;99.90;;;;;;5093865;28;19915;-24
2022/11/23 01:51:12;;;;;;;;;;;10.30;99.90;;;;;;5094677;28;20108;-24
2022/11/23 01:53:40;;;;;;;;;;;10.30;99.90;;;;;;5094444;28;19916;-24
2022/11/23 01:56:06;;;;;;;;;;;10.30;99.90;;;;;;5094169;28;19926;-24
2022/11/23 01:58:33;;;;;;;;;;;10.30;99.90;;;;;;5093090;28;19915;-24
2022/11/23 02:00:59;;;;;;;;;;;10.30;99.90;;;;;;5094308;28;20369;-24
2022/11/23 02:03:26;;;;;;;;;;;10.20;99.90;;;;;;5094951;28;19916;-24
2022/11/23 02:05:58;;;;;;;;;;;10.30;99.90;;;;;;5093658;28;19919;-24
2022/11/23 02:08:24;;;;;;;;;;;10.30;99.90;;;;;;5094577;28;20373;-24
2022/11/23 02:10:50;;;;;;;;;;;10.30;99.90;;;;;;5095108;28;19908;-24
2022/11/23 02:13:16;;;;;;;;;;;10.30;99.90;;;;;;5094479;28;19912;-24
2022/11/23 02:15:41;;;;;;;;;;;10.30;99.90;;;;;;5094338;28;19999;-24
2022/11/23 02:18:14;;;;;;;;;;;10.30;99.90;;;;;;5093159;28;20003;-24
2022/11/23 02:20:40;;;;;;;;;;;10.30;99.90;;;;;;5093060;28;20280;-24
2022/11/23 02:23:18;;;;;;;;;;;10.20;99.90;;;;;;5093673;28;20368;-24
2022/11/23 02:25:46;;;;;;;;;;;10.20;99.90;;;;;;5093219;28;19951;-24
2022/11/23 02:28:14;;;;;;;;;;;10.30;99.90;;;;;;5092911;28;19919;-24
2022/11/23 02:30:41;;;;;;;;;;;10.20;99.90;;;;;;5093375;28;19908;-23
2022/11/23 02:33:06;;;;;;;;;;;10.20;99.90;;;;;;5095140;28;20217;-24
2022/11/23 02:35:32;;;;;;;;;;;10.30;99.90;;;;;;5093284;28;19915;-24
2022/11/23 02:37:59;;;;;;;;;;;10.20;99.90;;;;;;5093120;28;20383;-23
2022/11/23 02:40:27;;;;;;;;;;;10.30;99.90;;;;;;5093105;28;19916;-24
2022/11/23 02:42:53;;;;;;;;;;;10.20;99.90;;;;;;5092903;28;19908;-24
2022/11/23 02:45:37;;;;;;;;;;;10.20;99.90;;;;;;5092323;28;19918;-24
2022/11/23 02:48:03;;;;;;;;;;;10.20;99.90;;;;;;5092618;28;20003;-24
2022/11/23 02:50:28;;;;;;;;;;;10.20;99.90;;;;;;5092516;28;20321;-24
2022/11/23 02:52:54;;;;;;;;;;;10.20;99.90;;;;;;5092659;28;19909;-24
2022/11/23 02:55:19;;;;;;;;;;;10.20;99.90;;;;;;5093202;28;19908;-24
2022/11/23 02:57:45;;;;;;;;;;;10.20;99.90;;;;;;5092231;28;19912;-24
2022/11/23 03:00:12;;;;;;;;;;;10.20;99.90;;;;;;5093364;28;20381;-24
2022/11/23 03:02:37;;;;;;;;;;;10.20;99.90;;;;;;5093116;28;20490;-23
2022/11/23 03:05:03;;;;;;;;;;;10.20;99.90;;;;;;5091228;28;19912;-24
2022/11/23 03:07:29;;;;;;;;;;;10.20;99.90;;;;;;5093498;28;20379;-23
2022/11/23 03:09:54;;;;;;;;;;;10.20;99.90;;;;;;5094382;28;19915;-23
2022/11/23 03:12:20;;;;;;;;;;;10.20;99.90;;;;;;5096363;28;19908;-24
2022/11/23 03:14:45;;;;;;;;;;;10.10;99.90;;;;;;5096982;28;19908;-24
2022/11/23 03:17:11;;;;;;;;;;;10.20;99.90;;;;;;5096935;28;20335;-24
2022/11/23 03:19:36;;;;;;;;;;;10.20;99.90;;;;;;5096302;28;19916;-24
2022/11/23 03:22:02;;;;;;;;;;;10.20;99.90;;;;;;5097331;28;19916;-24
2022/11/23 03:24:28;;;;;;;;;;;10.20;99.90;;;;;;5097108;28;19934;-24
2022/11/23 03:26:56;;;;;;;;;;;10.20;99.90;;;;;;5096667;28;20373;-24
2022/11/23 03:29:25;;;;;;;;;;;10.10;99.90;;;;;;5095770;28;19907;-24
2022/11/23 03:31:54;;;;;;;;;;;10.10;99.90;;;;;;5096669;28;19946;-23
2022/11/23 03:34:19;;;;;;;;;;;10.20;99.90;;;;;;5096878;28;19981;-24
2022/11/23 03:36:45;;;;;;;;;;;10.10;99.90;;;;;;5096022;28;19908;-24
2022/11/23 03:39:11;;;;;;;;;;;10.10;99.90;;;;;;5095649;28;19935;-24
2022/11/23 03:41:36;;;;;;;;;;;10.10;99.90;;;;;;5097763;28;20388;-24
2022/11/23 03:44:02;;;;;;;;;;;10.10;99.90;;;;;;5095883;28;19946;-24
2022/11/23 03:46:27;;;;;;;;;;;10.10;99.90;;;;;;5096191;28;20021;-24
2022/11/23 03:48:53;;;;;;;;;;;10.20;99.90;;;;;;5095478;28;19955;-24
2022/11/23 03:51:18;;;;;;;;;;;10.10;99.90;;;;;;5096098;28;20456;-24
2022/11/23 03:53:44;;;;;;;;;;;10.10;99.90;;;;;;5095848;28;19914;-24
2022/11/23 03:56:09;;;;;;;;;;;10.10;99.90;;;;;;5096312;28;19919;-24
2022/11/23 03:58:35;;;;;;;;;;;10.10;99.90;;;;;;5095589;28;19908;-24
2022/11/23 04:01:00;;;;;;;;;;;10.10;99.90;;;;;;5095856;28;19934;-24
2022/11/23 04:03:26;;;;;;;;;;;10.20;99.90;;;;;;5095622;28;20391;-24
2022/11/23 04:05:52;;;;;;;;;;;10.20;99.90;;;;;;5095968;28;19912;-23
2022/11/23 04:08:20;;;;;;;;;;;10.10;99.90;;;;;;5095565;28;20390;-24
2022/11/23 04:10:46;;;;;;;;;;;10.10;99.90;;;;;;5096496;28;20341;-24
2022/11/23 04:13:12;;;;;;;;;;;10.10;99.90;;;;;;5096043;28;19919;-23
2022/11/23 04:15:37;;;;;;;;;;;10.10;99.90;;;;;;5096450;28;19979;-23
2022/11/23 04:18:03;;;;;;;;;;;10.10;99.90;;;;;;5095307;28;20002;-24
2022/11/23 04:20:28;;;;;;;;;;;10.10;99.90;;;;;;5094711;28;19912;-24
2022/11/23 04:22:54;;;;;;;;;;;10.10;99.90;;;;;;5094841;28;19908;-24
2022/11/23 04:25:19;;;;;;;;;;;10.10;99.90;;;;;;5096396;28;19927;-23
2022/11/23 04:27:45;;;;;;;;;;;10.10;99.90;;;;;;5095146;28;20002;-24
2022/11/23 04:30:11;;;;;;;;;;;10.10;99.90;;;;;;5095380;28;20002;-23
2022/11/23 04:32:36;;;;;;;;;;;10.10;99.90;;;;;;5096622;28;19908;-23
2022/11/23 04:35:02;;;;;;;;;;;10.10;99.90;;;;;;5095491;28;19908;-24
2022/11/23 04:37:27;;;;;;;;;;;10.10;99.90;;;;;;5095243;28;19912;-23
2022/11/23 04:39:53;;;;;;;;;;;10.10;99.90;;;;;;5095162;28;20412;-24
2022/11/23 04:42:18;;;;;;;;;;;10.10;99.90;;;;;;5094729;28;19915;-23
2022/11/23 04:44:45;;;;;;;;;;;10.10;99.90;;;;;;5095884;28;20324;-24
2022/11/23 04:47:10;;;;;;;;;;;10.10;99.90;;;;;;5094959;28;19916;-23
2022/11/23 04:49:36;;;;;;;;;;;10.10;99.90;;;;;;5094057;28;19912;-23
2022/11/23 04:52:01;;;;;;;;;;;10.10;99.90;;;;;;5094978;28;19916;-24
2022/11/23 04:54:27;;;;;;;;;;;10.10;99.90;;;;;;5094745;28;19911;-23
2022/11/23 04:56:53;;;;;;;;;;;10.10;99.90;;;;;;5094890;28;20277;-23
2022/11/23 04:59:18;;;;;;;;;;;10.10;99.90;;;;;;5095341;28;20356;-23
2022/11/23 05:01:44;;;;;;;;;;;10.10;99.90;;;;;;5094297;28;19927;-23
2022/11/23 05:04:10;;;;;;;;;;;10.10;99.90;;;;;;5094987;28;19916;-22
2022/11/23 05:06:35;;;;;;;;;;;10.00;99.90;;;;;;5094194;28;19915;-23
2022/11/23 05:09:01;;;;;;;;;;;10.10;99.90;;;;;;5094559;28;20368;-24
2022/11/23 05:11:26;;;;;;;;;;;10.10;99.90;;;;;;5094413;28;20422;-24
2022/11/23 05:13:52;;;;;;;;;;;10.00;99.90;;;;;;5094132;28;19912;-23
2022/11/23 05:16:18;;;;;;;;;;;10.00;99.90;;;;;;5094370;28;19923;-24
2022/11/23 05:18:44;;;;;;;;;;;10.00;99.90;;;;;;5093453;28;19912;-24
2022/11/23 05:21:09;;;;;;;;;;;10.00;99.90;;;;;;5094609;28;19912;-24
2022/11/23 05:23:35;;;;;;;;;;;10.00;99.90;;;;;;5094654;28;19966;-23
2022/11/23 05:26:00;;;;;;;;;;;10.00;99.90;;;;;;5093942;28;19918;-23
2022/11/23 05:28:25;;;;;;;;;;;10.10;99.90;;;;;;5093436;28;19916;-23
2022/11/23 05:30:51;;;;;;;;;;;10.00;99.90;;;;;;5094424;28;19915;-24
2022/11/23 05:33:16;;;;;;;;;;;10.10;99.90;;;;;;5093430;28;19908;-24
2022/11/23 05:35:42;;;;;;;;;;;10.00;99.90;;;;;;5094526;28;19919;-24
2022/11/23 05:38:07;;;;;;;;;;;10.00;99.90;;;;;;5093553;28;20293;-23
2022/11/23 05:40:33;;;;;;;;;;;10.00;99.90;;;;;;5093628;28;19955;-23
2022/11/23 05:42:58;;;;;;;;;;;10.00;99.90;;;;;;5093866;28;19999;-24
2022/11/23 05:45:24;;;;;;;;;;;10.00;99.90;;;;;;5092646;28;20308;-24
2022/11/23 05:47:50;;;;;;;;;;;10.00;99.90;;;;;;5093827;28;20316;-24
2022/11/23 05:50:16;;;;;;;;;;;10.00;99.90;;;;;;5094446;28;19908;-24
2022/11/23 05:52:41;;;;;;;;;;;10.00;99.90;;;;;;5093254;28;19908;-24
2022/11/23 05:55:07;;;;;;;;;;;10.00;99.90;;;;;;5093735;28;20370;-23
2022/11/23 05:57:32;;;;;;;;;;;10.00;99.90;;;;;;5093293;28;19908;-23
2022/11/23 05:59:58;;;;;;;;;;;10.00;99.90;;;;;;5093241;28;20312;-23
2022/11/23 06:02:23;;;;;;;;;;;10.00;99.90;;;;;;5093421;28;19942;-23
2022/11/23 06:04:49;;;;;;;;;;;10.00;99.90;;;;;;5093575;28;19916;-23
2022/11/23 06:07:14;;;;;;;;;;;10.00;99.90;;;;;;5093837;28;19908;-24
2022/11/23 06:09:40;;;;;;;;;;;10.00;99.90;;;;;;5092655;28;20403;-24
2022/11/23 06:12:05;;;;;;;;;;;10.00;99.90;;;;;;5093321;28;19955;-24
2022/11/23 06:14:31;;;;;;;;;;;9.90;99.90;;;;;;5094088;28;19908;-24
2022/11/23 06:16:56;;;;;;;;;;;10.00;99.90;;;;;;5093067;28;20392;-23
2022/11/23 06:19:22;;;;;;;;;;;9.90;99.90;;;;;;5092421;28;20361;-23
2022/11/23 06:21:47;;;;;;;;;;;10.00;99.90;;;;;;5093420;28;19926;-24
2022/11/23 06:24:13;;;;;;;;;;;10.00;99.90;;;;;;5093876;28;20006;-24
2022/11/23 06:26:38;;;;;;;;;;;9.90;99.90;;;;;;5093456;28;19914;-24
2022/11/23 06:29:04;;;;;;;;;;;9.90;99.90;;;;;;5093880;28;20008;-24
2022/11/23 06:31:29;;;;;;;;;;;9.90;99.90;;;;;;5092913;28;19908;-23
2022/11/23 06:33:56;;;;;;;;;;;9.90;99.90;;;;;;5092902;28;20026;-24
2022/11/23 06:36:22;;;;;;;;;;;9.90;99.90;;;;;;5092965;28;19908;-24
2022/11/23 06:38:47;;;;;;;;;;;10.00;99.90;;;;;;5092573;28;19916;-23
2022/11/23 06:41:13;;;;;;;;;;;9.90;99.90;;;;;;5092743;28;19975;-24
2022/11/23 06:43:39;;;;;;;;;;;9.90;99.90;;;;;;5092137;28;20361;-24
2022/11/23 06:46:05;;;;;;;;;;;9.90;99.90;;;;;;5093390;28;20387;-23
2022/11/23 06:48:31;;;;;;;;;;;9.90;99.90;;;;;;5093196;28;19908;-24
2022/11/23 06:51:00;;;;;;;;;;;9.90;99.90;;;;;;5093112;28;19915;-24
2022/11/23 06:53:27;;;;;;;;;;;9.90;99.90;;;;;;5094552;28;20411;-23
2022/11/23 06:55:56;;;;;;;;;;;9.90;99.90;;;;;;5093795;28;19908;-24
2022/11/23 06:58:22;;;;;;;;;;;9.90;99.90;;;;;;5092139;28;19916;-24
2022/11/23 07:00:47;;;;;;;;;;;9.90;99.90;;;;;;5094190;28;20482;-24
2022/11/23 07:03:23;;;;;;;;;;;9.90;99.90;;;;;;5093409;28;19913;-24
2022/11/23 07:05:49;;;;;;;;;;;9.90;99.90;;;;;;5093560;28;19916;-24
2022/11/23 07:08:14;;;;;;;;;;;9.90;99.90;;;;;;5093053;28;19919;-24
2022/11/23 07:10:40;;;;;;;;;;;9.90;99.90;;;;;;5092012;28;19914;-23
2022/11/23 07:13:07;;;;;;;;;;;9.90;99.90;;;;;;5093374;28;19915;-23
2022/11/23 07:15:33;;;;;;;;;;;9.90;99.90;;;;;;5092969;28;19915;-24
2022/11/23 07:17:58;;;;;;;;;;;9.90;99.90;;;;;;5093240;28;20373;-24
2022/11/23 07:20:23;;;;;;;;;;;9.90;99.90;;;;;;5093695;28;19966;-24
2022/11/23 07:23:05;;;;;;;;;;;9.90;99.90;;;;;;5092913;28;20473;-24
2022/11/23 07:25:32;;;;;;;;;;;9.90;99.90;;;;;;5092340;28;19912;-24
2022/11/23 07:27:58;;;;;;;;;;;9.90;99.90;;;;;;5091833;28;19999;-23
2022/11/23 07:30:24;;;;;;;;;;;9.90;99.90;;;;;;5092419;28;19944;-24
2022/11/23 07:32:50;;;;;;;;;;;9.90;99.90;;;;;;5092389;28;19957;-24
2022/11/23 07:35:17;;;;;;;;;;;10.00;99.90;;;;;;5092687;28;19938;-24
2022/11/23 07:37:42;;;;;;;;;;;10.00;99.90;;;;;;5093164;28;19995;-24
2022/11/23 07:40:09;;;;;;;;;;;10.00;99.90;;;;;;5093539;28;19955;-23
2022/11/23 07:42:34;;;;;;;;;;;10.00;99.90;;;;;;5092614;28;19915;-23
2022/11/23 07:45:00;;;;;;;;;;;10.00;99.90;;;;;;5092352;28;19908;-24
2022/11/23 07:47:26;;;;;;;;;;;10.00;99.90;;;;;;5092278;28;19912;-24
2022/11/23 07:49:51;;;;;;;;;;;9.90;99.90;;;;;;5091451;28;20392;-25
2022/11/23 07:52:17;;;;;;;;;;;9.70;99.90;;;;;;5092327;28;19912;-24
2022/11/23 07:54:42;;;;;;;;;;;9.60;99.90;;;;;;5092219;28;20396;-23
2022/11/23 07:57:09;;;;;;;;;;;9.70;99.90;;;;;;5095847;28;19916;-23
2022/11/23 07:59:34;;;;;;;;;;;9.80;99.90;;;;;;5096020;28;19912;-24
2022/11/23 08:02:00;;;;;;;;;;;9.80;99.90;;;;;;5095451;28;19908;-24
2022/11/23 08:04:25;;;;;;;;;;;9.90;99.90;;;;;;5133960;22;20013;-26
2022/11/23 08:06:51;;;;;;;;;;;10.00;99.90;;;;;;5095201;28;19912;-26
2022/11/23 08:09:17;;;;;;;;;;;10.00;99.90;;;;;;5075916;28;20290;-26
2022/11/23 08:11:42;;;;;;;;;;;10.10;99.90;;;;;;5094527;28;20609;-26
2022/11/23 08:14:08;;;;;;;;;;;10.20;99.90;;;;;;5094546;28;19919;-26
2022/11/23 08:16:33;;;;;;;;;;;10.20;99.90;;;;;;5094644;28;19908;-26
2022/11/23 08:18:59;;;;;;;;;;;10.30;99.90;;;;;;5094056;28;20418;-26
2022/11/23 08:21:24;;;;;;;;;;;10.30;99.90;;;;;;5094830;28;19916;-26
2022/11/23 08:23:50;;;;;;;;;;;10.30;99.90;;;;;;5094341;28;19908;-26
2022/11/23 08:26:15;;;;;;;;;;;10.40;99.90;;;;;;5094257;28;20015;-26
2022/11/23 08:28:41;;;;;;;;;;;10.40;99.90;;;;;;5093773;28;19908;-26
2022/11/23 08:31:07;;;;;;;;;;;10.40;99.90;;;;;;5094292;28;20385;-25
2022/11/23 08:33:33;;;;;;;;;;;10.50;99.90;;;;;;5094285;28;19965;-26
2022/11/23 08:36:02;;;;;;;;;;;10.60;99.90;;;;;;5076163;28;20211;-26
2022/11/23 08:38:30;;;;;;;;;;;10.60;99.90;;;;;;5093829;28;19912;-26
2022/11/23 08:40:59;;;;;;;;;;;10.60;99.90;;;;;;5094005;28;20006;-26
2022/11/23 08:43:25;;;;;;;;;;;10.70;99.90;;;;;;5094062;28;20273;-26
2022/11/23 08:45:54;;;;;;;;;;;10.70;99.90;;;;;;5096149;28;19909;-26
2022/11/23 08:48:20;;;;;;;;;;;10.70;99.90;;;;;;5094090;28;19997;-26
2022/11/23 08:50:45;;;;;;;;;;;10.80;99.90;;;;;;5095022;28;19922;-26
2022/11/23 08:53:11;;;;;;;;;;;10.80;99.90;;;;;;5094231;28;19961;-26
2022/11/23 08:55:36;;;;;;;;;;;10.90;99.90;;;;;;5093752;28;20447;-26
2022/11/23 08:58:07;;;;;;;;;;;10.90;99.90;;;;;;5093605;28;19918;-25
2022/11/23 09:00:32;;;;;;;;;;;10.90;99.90;;;;;;5094332;28;19916;-35
2022/11/23 09:02:58;;;;;;;;;;;11.00;99.90;;;;;;5093608;28;19908;-26
2022/11/23 09:05:24;;;;;;;;;;;11.00;99.90;;;;;;5093526;28;19916;-26
2022/11/23 09:07:50;;;;;;;;;;;11.10;99.90;;;;;;5092385;28;20388;-25
2022/11/23 09:10:16;;;;;;;;;;;11.10;99.90;;;;;;5093276;28;19952;-25
2022/11/23 09:12:41;;;;;;;;;;;11.20;99.90;;;;;;5093694;28;20380;-26
2022/11/23 09:15:07;;;;;;;;;;;11.20;99.90;;;;;;5093334;28;19912;-26
2022/11/23 09:17:33;;;;;;;;;;;11.20;99.90;;;;;;5093304;28;19987;-26
2022/11/23 09:19:58;;;;;;;;;;;11.30;99.90;;;;;;5092576;28;19981;-26
2022/11/23 09:22:25;;;;;;;;;;;11.30;99.90;;;;;;5093046;28;19909;-26
2022/11/23 09:24:51;;;;;;;;;;;11.30;99.90;;;;;;5093216;28;19931;-26
2022/11/23 09:27:17;;;;;;;;;;;11.40;99.90;;;;;;5093041;28;19908;-26
2022/11/23 09:29:42;;;;;;;;;;;11.40;99.90;;;;;;5092904;28;19923;-26
2022/11/23 09:32:08;;;;;;;;;;;11.40;99.90;;;;;;5093019;28;19908;-26
2022/11/23 09:34:33;;;;;;;;;;;11.50;99.90;;;;;;5093053;28;19908;-26
2022/11/23 09:36:59;;;;;;;;;;;11.50;99.90;;;;;;5092723;28;19908;-26
2022/11/23 09:39:24;;;;;;;;;;;11.30;99.90;;;;;;5092944;28;19935;-26
2022/11/23 09:42:00;;;;;;;;;;;11.30;99.90;;;;;;5093071;28;20389;-26
2022/11/23 09:44:28;;;;;;;;;;;11.30;99.90;;;;;;5092962;28;19953;-26
2022/11/23 09:47:06;;;;;;;;;;;11.30;99.90;;;;;;5092782;28;19912;-26
2022/11/23 09:49:37;;;;;;;;;;;11.40;99.90;;;;;;5092472;28;20316;-26
2022/11/23 09:52:07;;;;;;;;;;;11.40;99.90;;;;;;5092646;28;20014;-26
2022/11/23 09:54:36;;;;;;;;;;;11.40;99.90;;;;;;5092690;28;19916;-26
2022/11/23 09:57:03;;;;;;;;;;;11.40;99.90;;;;;;5092668;28;19939;-26
2022/11/23 09:59:28;;;;;;;;;;;11.50;99.90;;;;;;5092145;28;19922;-26
2022/11/23 10:01:54;;;;;;;;;;;11.50;99.90;;;;;;5092415;28;20383;-26
2022/11/23 10:04:20;;;;;;;;;;;11.50;99.90;;;;;;5092392;28;19916;-26
2022/11/23 10:06:50;;;;;;;;;;;11.50;99.90;;;;;;5093621;28;19969;-26
2022/11/23 10:09:36;;;;;;;;;;;11.60;99.90;;;;;;5091926;28;20278;-26
2022/11/23 10:12:22;;;;;;;;;;;11.60;99.90;;;;;;5074829;28;20047;-26
2022/11/23 10:14:54;;;;;;;;;;;11.60;99.90;;;;;;5091466;28;20408;-26
2022/11/23 10:17:28;;;;;;;;;;;11.60;99.90;;;;;;5092600;28;20210;-26
2022/11/23 10:20:00;;;;;;;;;;;11.60;99.90;;;;;;5073728;28;20300;-26
2022/11/23 10:22:34;;;;;;;;;;;11.60;99.90;;;;;;5092132;28;19908;-26
2022/11/23 10:25:01;;;;;;;;;;;11.60;99.90;;;;;;5092304;28;20007;-26
2022/11/23 10:27:28;;;;;;;;;;;11.60;99.90;;;;;;5092365;28;20349;-26
2022/11/23 10:29:55;;;;;;;;;;;11.60;99.90;;;;;;5092222;28;19958;-26
2022/11/23 10:32:21;;;;;;;;;;;11.60;99.90;;;;;;5092515;28;19920;-26
2022/11/23 10:34:55;;;;;;;;;;;11.60;99.90;;;;;;5093126;28;19958;-26
2022/11/23 10:37:21;;;;;;;;;;;11.60;99.90;;;;;;5097365;28;19912;-26
2022/11/23 10:39:46;;;;;;;;;;;11.70;99.90;;;;;;5109031;28;19978;-26
2022/11/23 10:42:16;;;;;;;;;;;11.60;99.90;;;;;;5109931;28;19934;-26
2022/11/23 10:44:41;;;;;;;;;;;11.70;99.90;;;;;;5107377;28;19919;-26
2022/11/23 10:47:07;;;;;;;;;;;11.70;99.90;;;;;;5092639;28;19892;-26
2022/11/23 10:49:33;;;;;;;;;;;11.70;99.90;;;;;;5092137;28;20266;-26
2022/11/23 10:52:04;;;;;;;;;;;11.70;99.90;;;;;;5092217;28;19935;-26
2022/11/23 10:54:36;;;;;;;;;;;11.70;99.90;;;;;;5091665;28;19995;-26
2022/11/23 10:57:20;;;;;;;;;;;11.70;99.90;;;;;;5092138;28;19955;-26
2022/11/23 10:59:55;;;;;;;;;;;11.70;99.90;;;;;;5091129;28;19912;-26
2022/11/23 11:02:20;;;;;;;;;;;11.70;99.90;;;;;;5091723;28;19955;-26
2022/11/23 11:04:47;;;;;;;;;;;11.80;99.90;;;;;;5091476;28;19966;-26
2022/11/23 11:07:24;;;;;;;;;;;11.70;99.90;;;;;;5092142;28;19931;-26
2022/11/23 11:09:59;;;;;;;;;;;11.70;99.90;;;;;;5091307;28;19915;-26
2022/11/23 11:12:26;;;;;;;;;;;11.80;99.90;;;;;;5091644;28;19920;-26
2022/11/23 11:15:14;;;;;;;;;;;11.80;99.90;;;;;;5091388;28;19944;-26
2022/11/23 11:17:40;;;;;;;;;;;11.80;99.90;;;;;;5091394;28;20303;-26
2022/11/23 11:20:25;;;;;;;;;;;11.80;99.90;;;;;;5091848;28;19983;-26
2022/11/23 11:22:50;;;;;;;;;;;11.80;99.90;;;;;;5091727;28;19915;-26
2022/11/23 11:25:29;;;;;;;;;;;11.80;99.90;;;;;;5091178;28;20335;-26
2022/11/23 11:27:55;;;;;;;;;;;11.80;99.90;;;;;;5091106;28;19912;-25
2022/11/23 11:30:22;;;;;;;;;;;11.80;99.90;;;;;;5091973;28;19947;-26
2022/11/23 11:32:51;;;;;;;;;;;11.80;99.90;;;;;;5095298;28;19909;-26
2022/11/23 11:35:27;;;;;;;;;;;11.90;99.90;;;;;;5095221;28;19995;-26
2022/11/23 11:38:01;;;;;;;;;;;11.80;99.90;;;;;;5094746;28;19919;-25
2022/11/23 11:40:59;;;;;;;;;;;11.90;99.90;;;;;;5096479;28;19913;-26
2022/11/23 11:43:33;;;;;;;;;;;11.90;99.90;;;;;;5041025;28;20331;-26
2022/11/23 11:46:01;;;;;;;;;;;11.80;99.90;;;;;;5096486;28;20389;-26
2022/11/23 11:48:35;;;;;;;;;;;11.80;99.90;;;;;;5094685;28;19995;-26
2022/11/23 11:51:07;;;;;;;;;;;11.80;99.90;;;;;;5095096;28;20322;-26
2022/11/23 11:53:38;;;;;;;;;;;11.80;99.90;;;;;;5095060;28;19960;-26
2022/11/23 11:56:06;;;;;;;;;;;11.80;99.90;;;;;;5095861;28;19912;-26
2022/11/23 11:58:32;;;;;;;;;;;11.70;99.90;;;;;;5094287;28;19915;-26
2022/11/23 12:01:07;;;;;;;;;;;11.70;99.90;;;;;;5096400;28;19923;-26
2022/11/23 12:03:40;;;;;;;;;;;11.70;99.90;;;;;;5094591;28;19912;-26
2022/11/23 12:06:25;;;;;;;;;;;11.70;99.90;;;;;;5096113;28;19908;-26
2022/11/23 12:08:56;;;;;;;;;;;11.60;99.90;;;;;;5093359;28;19965;-26
2022/11/23 12:11:22;;;;;;;;;;;11.70;99.90;;;;;;5096214;28;19908;-26
2022/11/23 12:13:48;;;;;;;;;;;11.70;99.90;;;;;;5094761;28;20377;-26
2022/11/23 12:16:25;;;;;;;;;;;11.60;99.90;;;;;;5094626;28;19962;-26
2022/11/23 12:19:09;;;;;;;;;;;11.70;99.90;;;;;;5094575;28;19998;-26
2022/11/23 12:21:53;;;;;;;;;;;11.60;99.90;;;;;;5094611;28;19958;-26
2022/11/23 12:24:38;;;;;;;;;;;11.70;99.90;;;;;;5094607;28;19930;-26
2022/11/23 12:27:12;;;;;;;;;;;11.60;99.90;;;;;;5094416;28;20404;-26
2022/11/23 12:29:58;;;;;;;;;;;11.60;99.90;;;;;;5094134;28;20254;-26
2022/11/23 12:32:27;;;;;;;;;;;11.60;99.90;;;;;;5094066;28;19916;-26
2022/11/23 12:34:52;;;;;;;;;;;11.60;99.90;;;;;;5094270;28;20313;-26
2022/11/23 12:37:53;;;;;;;;;;;11.60;99.90;;;;;;5094318;28;19912;-26
2022/11/23 12:40:19;;;;;;;;;;;11.60;99.90;;;;;;5039861;28;19935;-26
2022/11/23 12:42:51;;;;;;;;;;;11.60;99.90;;;;;;5093499;28;19908;-26
2022/11/23 12:45:19;;;;;;;;;;;11.60;99.90;;;;;;5095719;28;19908;-26
2022/11/23 12:48:11;;;;;;;;;;;11.60;99.90;;;;;;5093976;28;19912;-26
2022/11/23 12:50:43;;;;;;;;;;;11.50;99.90;;;;;;5094416;28;20353;-26
2022/11/23 12:53:27;;;;;;;;;;;11.60;99.90;;;;;;5093804;28;19912;-26
2022/11/23 12:55:58;;;;;;;;;;;11.50;99.90;;;;;;5094547;28;19904;-26
2022/11/23 12:58:27;;;;;;;;;;;11.50;99.90;;;;;;5093302;28;19974;-26
2022/11/23 13:00:55;;;;;;;;;;;11.50;99.90;;;;;;5093652;28;20011;-26
2022/11/23 13:03:40;;;;;;;;;;;11.50;99.90;;;;;;5093752;28;19908;-26
2022/11/23 13:06:20;;;;;;;;;;;11.50;99.90;;;;;;5093721;28;19912;-26
2022/11/23 13:08:54;;;;;;;;;;;11.50;99.90;;;;;;5093577;28;19908;-26
2022/11/23 13:11:48;;;;;;;;;;;11.50;99.90;;;;;;5098597;28;19915;-26
2022/11/23 13:14:19;;;;;;;;;;;11.50;99.90;;;;;;5097705;28;19916;-25
2022/11/23 13:16:53;;;;;;;;;;;11.50;99.90;;;;;;5093585;28;19912;-25
2022/11/23 13:19:18;;;;;;;;;;;11.50;99.90;;;;;;5093156;28;19912;-25
2022/11/23 13:21:45;;;;;;;;;;;11.40;99.90;;;;;;5093715;28;19923;-25
2022/11/23 13:24:26;;;;;;;;;;;11.50;99.90;;;;;;5093192;28;19927;-25
2022/11/23 13:27:10;;;;;;;;;;;11.40;99.90;;;;;;5092584;28;19919;-24
2022/11/23 13:30:07;;;;;;;;;;;11.30;99.90;;;;;;5092421;28;19969;-24
2022/11/23 13:32:33;;;;;;;;;;;11.20;99.90;;;;;;5037273;28;19999;-24
2022/11/23 13:34:58;;;;;;;;;;;11.10;99.90;;;;;;5093086;28;20001;-25
2022/11/23 13:37:24;;;;;;;;;;;11.00;99.90;;;;;;5092962;28;19931;-24
2022/11/23 13:39:49;;;;;;;;;;;11.00;99.90;;;;;;5092380;28;19920;-25
2022/11/23 13:42:15;;;;;;;;;;;11.00;99.90;;;;;;5092313;28;19951;-25
2022/11/23 13:44:41;;;;;;;;;;;10.90;99.90;;;;;;5092601;28;19918;-27
2022/11/23 13:47:14;;;;;;;;;;;10.90;99.90;;;;;;5092629;28;20007;-27
2022/11/23 13:49:44;;;;;;;;;;;11.00;99.90;;;;;;5074095;28;20353;-27
2022/11/23 13:52:22;;;;;;;;;;;11.20;99.90;;;;;;5092940;28;20463;-26
2022/11/23 13:54:56;;;;;;;;;;;11.20;99.90;;;;;;5092448;28;19909;-26
2022/11/23 13:57:22;;;;;;;;;;;11.30;99.90;;;;;;5092658;28;20003;-26
2022/11/23 13:59:47;;;;;;;;;;;11.30;99.90;;;;;;5092160;28;20011;-26
2022/11/23 14:02:16;;;;;;;;;;;11.40;99.90;;;;;;5092655;28;19922;-27
2022/11/23 14:04:42;;;;;;;;;;;11.40;99.90;;;;;;5113131;22;20015;-25
2022/11/23 14:07:25;;;;;;;;;;;11.40;99.90;;;;;;5095139;28;19918;-25
2022/11/23 14:09:56;;;;;;;;;;;11.40;99.90;;;;;;5091879;28;19940;-25
2022/11/23 14:12:29;;;;;;;;;;;11.30;99.90;;;;;;5093569;28;19995;-25
2022/11/23 14:15:02;;;;;;;;;;;11.30;99.90;;;;;;5093969;28;20383;-25
2022/11/23 14:17:40;;;;;;;;;;;11.30;99.90;;;;;;5094690;28;19916;-25
2022/11/23 14:20:24;;;;;;;;;;;11.30;99.90;;;;;;5094908;28;20391;-25
2022/11/23 14:22:53;;;;;;;;;;;11.20;99.90;;;;;;5094264;28;19916;-25
2022/11/23 14:25:24;;;;;;;;;;;11.20;99.90;;;;;;5094481;28;19912;-25